createdAt,value
2019-04-29T00:00:09.976Z,50.35
2019-04-29T00:02:42.980Z,50.42
2019-04-29T00:05:14.618Z,50.48
2019-04-29T00:07:45.999Z,50.56
2019-04-29T00:10:20.419Z,50.55
2019-04-29T00:12:51.707Z,50.67
2019-04-29T00:15:32.446Z,50.74
2019-04-29T00:18:07.433Z,50.82
2019-04-29T00:20:45.435Z,50.86
2019-04-29T00:23:16.799Z,50.89
2019-04-29T00:25:48.081Z,50.97
2019-04-29T00:28:19.359Z,51.01
2019-04-29T00:30:50.693Z,51.07
2019-04-29T00:33:21.963Z,51.14
2019-04-29T00:35:53.363Z,51.17
2019-04-29T00:38:39.891Z,51.21
2019-04-29T00:41:35.257Z,51.24
2019-04-29T00:44:09.484Z,51.29
2019-04-29T00:46:40.835Z,51.43
2019-04-29T00:49:12.199Z,51.49
2019-04-29T00:51:43.445Z,51.54
2019-04-29T00:54:21.699Z,51.54
2019-04-29T00:56:53.010Z,51.61
2019-04-29T00:59:24.355Z,51.63
2019-04-29T01:01:55.762Z,51.79
2019-04-29T01:04:27.084Z,51.75
2019-04-29T01:06:58.437Z,51.77
2019-04-29T01:09:30.519Z,51.87
2019-04-29T01:12:01.924Z,51.88
2019-04-29T01:14:34.253Z,51.94
2019-04-29T01:17:05.575Z,52.01
2019-04-29T01:19:36.815Z,51.99
2019-04-29T01:22:08.023Z,52.03
2019-04-29T01:24:39.328Z,52.05
2019-04-29T01:27:34.715Z,52.10
2019-04-29T01:30:07.755Z,52.05
2019-04-29T01:32:39.244Z,52.05
2019-04-29T01:35:10.575Z,52.25
2019-04-29T01:37:43.065Z,52.34
2019-04-29T01:40:25.880Z,52.32
2019-04-29T01:42:57.160Z,52.54
2019-04-29T01:45:28.410Z,52.48
2019-04-29T01:47:59.685Z,52.51
2019-04-29T01:50:31.019Z,52.55
2019-04-29T01:53:02.203Z,52.58
2019-04-29T01:55:33.549Z,52.60
2019-04-29T01:58:04.761Z,52.71
2019-04-29T02:00:36.179Z,52.78
2019-04-29T02:03:07.586Z,52.81
2019-04-29T02:05:38.812Z,52.94
2019-04-29T02:08:10.180Z,53.03
2019-04-29T02:10:41.601Z,53.06
2019-04-29T02:13:12.863Z,53.13
2019-04-29T02:15:44.211Z,53.10
2019-04-29T02:18:15.579Z,53.10
2019-04-29T02:20:46.845Z,53.13
2019-04-29T02:23:49.338Z,53.10
2019-04-29T02:26:20.642Z,53.14
2019-04-29T02:28:51.946Z,53.17
2019-04-29T02:31:43.165Z,53.18
2019-04-29T02:34:14.434Z,53.24
2019-04-29T02:36:45.708Z,53.30
2019-04-29T02:39:37.651Z,53.33
2019-04-29T02:42:27.913Z,53.38
2019-04-29T02:45:03.578Z,53.39
2019-04-29T02:47:34.827Z,53.39
2019-04-29T02:50:07.215Z,53.35
2019-04-29T02:52:38.544Z,53.40
2019-04-29T02:55:12.012Z,53.45
2019-04-29T02:58:05.285Z,53.38
2019-04-29T03:01:01.894Z,53.37
2019-04-29T03:03:52.529Z,53.43
2019-04-29T03:06:23.842Z,53.58
2019-04-29T03:08:55.122Z,53.58
2019-04-29T03:11:26.419Z,53.72
2019-04-29T03:13:57.704Z,53.76
2019-04-29T03:16:31.101Z,53.72
2019-04-29T03:19:06.728Z,53.87
2019-04-29T03:22:02.994Z,53.83
2019-04-29T03:24:34.222Z,53.99
2019-04-29T03:27:06.684Z,54.08
2019-04-29T03:29:38.009Z,54.22
2019-04-29T03:32:09.281Z,54.11
2019-04-29T03:34:40.581Z,54.33
2019-04-29T03:37:11.913Z,54.49
2019-04-29T03:39:43.181Z,54.40
2019-04-29T03:42:14.509Z,54.45
2019-04-29T03:44:45.901Z,54.67
2019-04-29T03:47:18.937Z,54.56
2019-04-29T03:49:51.589Z,54.48
2019-04-29T03:52:22.852Z,54.46
2019-04-29T03:54:54.127Z,54.56
2019-04-29T03:57:25.359Z,54.54
2019-04-29T03:59:57.195Z,54.50
2019-04-29T04:02:47.537Z,54.41
2019-04-29T04:05:28.867Z,54.40
2019-04-29T04:08:25.190Z,54.34
2019-04-29T04:10:56.442Z,54.30
2019-04-29T04:13:27.722Z,54.33
2019-04-29T04:15:59.036Z,54.44
2019-04-29T04:18:31.824Z,54.22
2019-04-29T04:21:03.168Z,54.19
2019-04-29T04:23:34.416Z,54.03
2019-04-29T04:26:05.700Z,54.08
2019-04-29T04:28:36.987Z,53.91
2019-04-29T04:31:08.348Z,53.84
2019-04-29T04:33:39.796Z,53.76
2019-04-29T04:36:11.110Z,53.67
2019-04-29T04:38:42.354Z,53.62
2019-04-29T04:41:13.638Z,53.55
2019-04-29T04:43:44.959Z,53.49
2019-04-29T04:46:16.267Z,53.37
2019-04-29T04:48:47.529Z,53.23
2019-04-29T04:51:18.881Z,53.20
2019-04-29T04:53:50.190Z,53.15
2019-04-29T04:56:21.476Z,53.09
2019-04-29T04:58:52.713Z,53.06
2019-04-29T05:01:24.010Z,53.01
2019-04-29T05:03:55.374Z,52.90
2019-04-29T05:06:26.783Z,52.84
2019-04-29T05:08:58.178Z,52.82
2019-04-29T05:11:29.508Z,52.72
2019-04-29T05:14:00.793Z,52.69
2019-04-29T05:16:32.115Z,52.67
2019-04-29T05:19:03.540Z,52.66
2019-04-29T05:21:34.780Z,52.58
2019-04-29T05:24:06.128Z,52.55
2019-04-29T05:26:37.395Z,52.54
2019-04-29T05:29:08.734Z,52.45
2019-04-29T05:31:40.059Z,52.46
2019-04-29T05:34:12.156Z,52.38
2019-04-29T05:37:05.149Z,52.34
2019-04-29T05:39:38.787Z,52.31
2019-04-29T05:42:16.278Z,52.35
2019-04-29T05:44:48.647Z,52.27
2019-04-29T05:47:23.285Z,52.31
2019-04-29T05:50:16.911Z,52.34
2019-04-29T05:52:51.650Z,52.22
2019-04-29T05:55:22.878Z,52.15
2019-04-29T05:58:03.047Z,52.11
2019-04-29T06:00:30.024Z,52.09
2019-04-29T06:03:01.429Z,52.15
2019-04-29T06:05:32.701Z,52.06
2019-04-29T06:08:04.119Z,52.00
2019-04-29T06:10:35.527Z,51.91
2019-04-29T06:13:06.800Z,51.86
2019-04-29T06:15:38.028Z,51.86
2019-04-29T06:18:09.352Z,51.84
2019-04-29T06:20:40.622Z,51.83
2019-04-29T06:23:11.955Z,51.78
2019-04-29T06:25:43.214Z,51.80
2019-04-29T06:28:14.474Z,51.88
2019-04-29T06:30:50.255Z,51.81
2019-04-29T06:33:19.136Z,51.77
2019-04-29T06:35:50.396Z,51.87
2019-04-29T06:38:21.700Z,51.97
2019-04-29T06:40:53.068Z,51.97
2019-04-29T06:43:28.417Z,51.99
2019-04-29T06:45:57.577Z,52.02
2019-04-29T06:48:28.866Z,52.04
2019-04-29T06:51:00.111Z,51.96
2019-04-29T06:53:31.419Z,52.05
2019-04-29T06:56:02.714Z,52.11
2019-04-29T06:58:36.591Z,52.13
2019-04-29T07:01:07.059Z,52.20
2019-04-29T07:03:38.429Z,52.19
2019-04-29T07:06:09.832Z,52.31
2019-04-29T07:08:41.157Z,52.37
2019-04-29T07:11:12.436Z,52.32
2019-04-29T07:13:46.483Z,52.49
2019-04-29T07:16:17.177Z,52.50
2019-04-29T07:18:53.561Z,52.65
2019-04-29T07:21:22.566Z,52.66
2019-04-29T07:23:53.834Z,52.75
2019-04-29T07:26:25.107Z,52.84
2019-04-29T07:28:56.379Z,53.19
2019-04-29T07:31:28.419Z,53.23
2019-04-29T07:34:00.719Z,53.14
2019-04-29T07:36:32.041Z,53.26
2019-04-29T07:39:03.767Z,53.29
2019-04-29T07:41:35.806Z,53.47
2019-04-29T07:44:07.407Z,53.44
2019-04-29T07:46:56.684Z,53.69
2019-04-29T07:49:24.293Z,53.74
2019-04-29T07:51:55.750Z,54.10
2019-04-29T07:54:27.053Z,54.14
2019-04-29T07:56:58.333Z,54.39
2019-04-29T07:59:29.611Z,54.39
2019-04-29T08:02:01.415Z,54.62
2019-04-29T08:04:32.806Z,54.74
2019-04-29T08:07:04.218Z,54.72
2019-04-29T08:09:35.621Z,54.88
2019-04-29T08:12:07.158Z,55.11
2019-04-29T08:14:39.638Z,55.04
2019-04-29T08:17:10.907Z,55.25
2019-04-29T08:19:42.196Z,55.44
2019-04-29T08:22:17.819Z,55.45
2019-04-29T08:24:50.397Z,55.70
2019-04-29T08:27:19.491Z,55.58
2019-04-29T08:29:51.869Z,55.81
2019-04-29T08:32:23.132Z,55.63
2019-04-29T08:34:57.965Z,55.91
2019-04-29T08:37:27.484Z,55.74
2019-04-29T08:40:14.858Z,55.93
2019-04-29T08:42:37.248Z,56.37
2019-04-29T08:45:15.829Z,56.37
2019-04-29T08:47:47.877Z,56.67
2019-04-29T08:50:19.303Z,56.48
2019-04-29T08:52:50.575Z,56.57
2019-04-29T08:55:22.221Z,56.99
2019-04-29T08:57:54.028Z,56.73
2019-04-29T09:00:25.851Z,57.25
2019-04-29T09:02:57.758Z,56.77
2019-04-29T09:05:29.695Z,56.80
2019-04-29T09:08:01.502Z,56.86
2019-04-29T09:10:36.850Z,56.94
2019-04-29T09:13:07.671Z,57.11
2019-04-29T09:15:39.467Z,56.99
2019-04-29T09:18:11.459Z,57.04
2019-04-29T09:20:44.297Z,56.95
2019-04-29T09:23:18.563Z,57.25
2019-04-29T09:26:08.157Z,57.25
2019-04-29T09:28:39.963Z,57.13
2019-04-29T09:31:11.876Z,57.58
2019-04-29T09:33:44.209Z,57.73
2019-04-29T09:36:17.310Z,57.67
2019-04-29T09:38:49.072Z,57.77
2019-04-29T09:41:45.531Z,57.70
2019-04-29T09:44:44.914Z,57.91
2019-04-29T09:47:16.605Z,57.89
2019-04-29T09:49:48.550Z,57.93
2019-04-29T09:52:20.174Z,57.88
2019-04-29T09:54:52.173Z,57.91
2019-04-29T09:57:29.446Z,57.87
2019-04-29T10:00:07.102Z,57.86
2019-04-29T10:02:48.781Z,57.91
2019-04-29T10:05:36.691Z,57.92
2019-04-29T10:08:07.976Z,58.01
2019-04-29T10:10:40.899Z,57.98
2019-04-29T10:13:12.482Z,57.95
2019-04-29T10:15:51.079Z,57.99
2019-04-29T10:18:44.760Z,57.99
2019-04-29T10:21:21.517Z,58.48
2019-04-29T10:23:49.574Z,58.18
2019-04-29T10:26:21.212Z,58.17
2019-04-29T10:28:59.676Z,58.08
2019-04-29T10:31:30.949Z,58.21
2019-04-29T10:34:02.768Z,58.15
2019-04-29T10:36:34.468Z,58.26
2019-04-29T10:39:36.897Z,58.34
2019-04-29T10:42:09.096Z,58.17
2019-04-29T10:44:59.400Z,58.28
2019-04-29T10:47:48.331Z,58.33
2019-04-29T10:50:25.150Z,58.41
2019-04-29T10:52:56.629Z,58.21
2019-04-29T10:55:30.077Z,58.30
2019-04-29T10:58:01.267Z,58.36
2019-04-29T11:01:31.035Z,58.62
2019-04-29T11:04:02.735Z,58.60
2019-04-29T11:06:35.975Z,58.61
2019-04-29T11:09:50.725Z,58.59
2019-04-29T11:12:20.387Z,58.67
2019-04-29T11:14:51.726Z,58.72
2019-04-29T11:17:25.340Z,58.75
2019-04-29T11:19:56.938Z,58.76
2019-04-29T11:22:33.905Z,58.81
2019-04-29T11:25:27.313Z,59.00
2019-04-29T11:27:59.178Z,58.89
2019-04-29T11:30:34.872Z,58.76
2019-04-29T11:33:21.603Z,58.81
2019-04-29T11:36:06.746Z,58.76
2019-04-29T11:38:38.651Z,58.62
2019-04-29T11:41:12.310Z,58.55
2019-04-29T11:43:46.625Z,58.34
2019-04-29T11:46:16.370Z,58.39
2019-04-29T11:48:48.325Z,58.38
2019-04-29T11:51:34.249Z,58.27
2019-04-29T11:54:08.171Z,58.09
2019-04-29T11:56:39.730Z,58.38
2019-04-29T11:59:29.341Z,58.04
2019-04-29T12:02:12.435Z,58.10
2019-04-29T12:04:47.416Z,57.98
2019-04-29T12:07:21.150Z,58.06
2019-04-29T12:09:52.087Z,58.09
2019-04-29T12:12:23.772Z,58.06
2019-04-29T12:15:13.791Z,58.00
2019-04-29T12:17:57.800Z,58.09
2019-04-29T12:20:35.471Z,58.11
2019-04-29T12:23:11.099Z,58.05
2019-04-29T12:25:40.315Z,58.16
2019-04-29T12:28:18.801Z,58.31
2019-04-29T12:30:46.418Z,58.31
2019-04-29T12:33:22.701Z,58.25
2019-04-29T12:36:03.248Z,58.32
2019-04-29T12:38:51.492Z,58.28
2019-04-29T12:41:53.947Z,58.35
2019-04-29T12:44:35.477Z,58.30
2019-04-29T12:47:26.753Z,58.31
2019-04-29T12:49:56.351Z,58.22
2019-04-29T12:52:27.870Z,58.25
2019-04-29T12:55:03.091Z,58.30
2019-04-29T12:57:32.276Z,58.28
2019-04-29T13:00:07.633Z,58.26
2019-04-29T13:03:00.140Z,58.22
2019-04-29T13:05:57.973Z,58.09
2019-04-29T13:08:28.197Z,58.03
2019-04-29T13:11:02.235Z,57.89
2019-04-29T13:13:33.575Z,57.83
2019-04-29T13:16:23.936Z,57.73
2019-04-29T13:19:11.653Z,57.64
2019-04-29T13:21:39.312Z,57.46
2019-04-29T13:24:23.096Z,57.37
2019-04-29T13:26:43.279Z,57.25
2019-04-29T13:29:26.928Z,57.38
2019-04-29T13:31:48.196Z,57.40
2019-04-29T13:34:30.937Z,57.44
2019-04-29T13:37:07.315Z,57.42
2019-04-29T13:39:39.605Z,57.43
2019-04-29T13:42:10.841Z,57.49
2019-04-29T13:44:42.572Z,57.50
2019-04-29T13:47:42.690Z,57.53
2019-04-29T13:50:38.267Z,57.54
2019-04-29T13:52:55.976Z,57.44
2019-04-29T13:55:47.231Z,57.34
2019-04-29T13:58:02.776Z,57.32
2019-04-29T14:00:43.940Z,57.14
2019-04-29T14:03:20.560Z,57.12
2019-04-29T14:06:03.593Z,57.08
2019-04-29T14:08:28.655Z,57.14
2019-04-29T14:10:59.450Z,57.17
2019-04-29T14:13:31.053Z,57.21
2019-04-29T14:16:02.754Z,57.33
2019-04-29T14:18:35.095Z,57.37
2019-04-29T14:21:11.954Z,57.35
2019-04-29T14:23:42.564Z,57.34
2019-04-29T14:26:14.310Z,57.38
2019-04-29T14:28:45.803Z,57.46
2019-04-29T14:31:18.708Z,57.41
2019-04-29T14:34:17.370Z,57.58
2019-04-29T14:36:47.779Z,57.79
2019-04-29T14:39:36.183Z,57.93
2019-04-29T14:41:57.142Z,57.83
2019-04-29T14:44:47.910Z,57.92
2019-04-29T14:47:41.107Z,57.88
2019-04-29T14:50:15.570Z,57.93
2019-04-29T14:52:49.333Z,58.05
2019-04-29T14:55:24.980Z,58.07
2019-04-29T14:57:53.245Z,58.24
2019-04-29T15:00:47.173Z,58.33
2019-04-29T15:03:22.914Z,58.49
2019-04-29T15:05:54.687Z,58.46
2019-04-29T15:08:26.518Z,58.79
2019-04-29T15:10:58.302Z,58.67
2019-04-29T15:13:30.372Z,58.75
2019-04-29T15:16:09.647Z,58.76
2019-04-29T15:18:50.882Z,58.83
2019-04-29T15:21:42.435Z,59.04
2019-04-29T15:24:09.124Z,59.17
2019-04-29T15:26:40.816Z,59.22
2019-04-29T15:29:12.793Z,59.28
2019-04-29T15:31:47.054Z,59.32
2019-04-29T15:34:18.163Z,59.35
2019-04-29T15:36:51.702Z,59.55
2019-04-29T15:39:25.446Z,59.55
2019-04-29T15:41:56.642Z,59.38
2019-04-29T15:44:28.503Z,59.44
2019-04-29T15:47:00.235Z,59.80
2019-04-29T15:49:31.947Z,59.55
2019-04-29T15:52:03.597Z,59.58
2019-04-29T15:54:35.319Z,59.60
2019-04-29T15:57:09.088Z,59.50
2019-04-29T15:59:48.604Z,59.56
2019-04-29T16:02:13.946Z,59.68
2019-04-29T16:04:51.920Z,59.77
2019-04-29T16:07:55.652Z,59.64
2019-04-29T16:10:45.670Z,59.75
2019-04-29T16:13:17.359Z,59.72
2019-04-29T16:15:48.688Z,59.60
2019-04-29T16:18:19.990Z,59.62
2019-04-29T16:20:54.023Z,59.50
2019-04-29T16:23:24.220Z,59.65
2019-04-29T16:25:55.546Z,59.51
2019-04-29T16:28:31.805Z,59.49
2019-04-29T16:31:05.027Z,59.41
2019-04-29T16:33:34.023Z,59.34
2019-04-29T16:36:06.377Z,59.39
2019-04-29T16:38:37.699Z,59.41
2019-04-29T16:41:27.812Z,59.37
2019-04-29T16:43:59.363Z,59.40
2019-04-29T16:46:37.339Z,59.22
2019-04-29T16:49:04.626Z,59.37
2019-04-29T16:51:35.918Z,59.37
2019-04-29T16:54:07.426Z,59.50
2019-04-29T16:56:38.850Z,59.42
2019-04-29T16:59:10.215Z,59.31
2019-04-29T17:01:41.571Z,59.29
2019-04-29T17:04:12.901Z,59.32
2019-04-29T17:07:10.662Z,59.62
2019-04-29T17:09:39.022Z,59.48
2019-04-29T17:12:10.394Z,59.51
2019-04-29T17:17:18.636Z,59.38
2019-04-29T17:19:50.078Z,59.20
2019-04-29T17:22:26.863Z,59.20
2019-04-29T17:24:54.590Z,59.10
2019-04-29T17:27:47.859Z,58.90
2019-04-29T17:30:46.732Z,58.77
2019-04-29T17:33:27.989Z,58.71
2019-04-29T17:35:18.037Z,59.45
2019-04-29T17:35:54.527Z,58.71
2019-04-29T17:38:25.849Z,58.71
2019-04-29T17:40:57.149Z,58.72
2019-04-29T17:43:47.389Z,58.80
2019-04-29T17:46:36.378Z,58.76
2019-04-29T17:49:29.509Z,58.92
2019-04-29T17:52:03.024Z,59.00
2019-04-29T17:54:36.127Z,58.87
2019-04-29T17:57:28.121Z,58.86
2019-04-29T18:00:20.013Z,58.87
2019-04-29T18:03:09.007Z,58.83
2019-04-29T18:06:01.305Z,58.85
2019-04-29T18:08:38.636Z,58.91
2019-04-29T18:11:09.956Z,58.92
2019-04-29T18:13:41.232Z,58.89
2019-04-29T18:16:19.099Z,58.92
2019-04-29T18:18:58.545Z,58.90
2019-04-29T18:21:47.558Z,58.86
2019-04-29T18:24:45.228Z,58.83
2019-04-29T18:27:18.525Z,58.76
2019-04-29T18:29:49.841Z,58.71
2019-04-29T18:32:32.655Z,58.68
2019-04-29T18:34:55.933Z,58.62
2019-04-29T18:37:30.446Z,58.59
2019-04-29T18:40:02.433Z,58.53
2019-04-29T18:42:33.268Z,58.49
2019-04-29T18:45:05.143Z,58.47
2019-04-29T18:47:38.776Z,58.42
2019-04-29T18:50:10.191Z,58.44
2019-04-29T18:52:42.438Z,58.43
2019-04-29T18:55:13.670Z,58.43
2019-04-29T18:57:45.030Z,58.41
2019-04-29T19:00:19.872Z,58.39
2019-04-29T19:02:57.057Z,58.37
2019-04-29T19:05:36.276Z,58.33
2019-04-29T19:08:13.983Z,58.25
2019-04-29T19:10:40.671Z,58.23
2019-04-29T19:13:16.470Z,58.20
2019-04-29T19:15:48.432Z,58.10
2019-04-29T19:18:21.030Z,58.08
2019-04-29T19:20:54.071Z,58.01
2019-04-29T19:23:29.461Z,57.96
2019-04-29T19:25:58.472Z,57.93
2019-04-29T19:28:32.330Z,57.87
2019-04-29T19:31:06.739Z,57.78
2019-04-29T19:33:39.140Z,57.75
2019-04-29T19:36:13.228Z,57.70
2019-04-29T19:38:43.372Z,57.66
2019-04-29T19:41:16.210Z,57.57
2019-04-29T19:43:54.829Z,57.57
2019-04-29T19:46:24.274Z,57.58
2019-04-29T19:48:58.281Z,57.53
2019-04-29T19:51:27.452Z,57.51
2019-04-29T19:53:59.969Z,57.50
2019-04-29T19:56:31.377Z,57.50
2019-04-29T19:59:10.449Z,57.51
2019-04-29T20:01:37.929Z,57.49
2019-04-29T20:04:29.031Z,57.52
2019-04-29T20:07:06.661Z,57.52
2019-04-29T20:09:36.930Z,57.60
2019-04-29T20:12:12.798Z,57.64
2019-04-29T20:14:40.672Z,57.67
2019-04-29T20:17:31.811Z,57.70
2019-04-29T20:20:09.136Z,57.73
2019-04-29T20:22:43.475Z,57.82
2019-04-29T20:25:13.950Z,57.80
2019-04-29T20:27:45.971Z,57.80
2019-04-29T20:30:20.825Z,57.77
2019-04-29T20:32:51.387Z,57.75
2019-04-29T20:35:22.909Z,57.73
2019-04-29T20:37:56.658Z,57.70
2019-04-29T20:40:35.238Z,57.68
2019-04-29T20:43:01.041Z,57.66
2019-04-29T20:45:35.149Z,57.61
2019-04-29T20:48:06.662Z,57.52
2019-04-29T20:50:40.660Z,57.45
2019-04-29T20:53:19.511Z,57.39
2019-04-29T20:55:51.194Z,57.30
2019-04-29T20:58:23.532Z,57.21
2019-04-29T21:01:02.596Z,57.09
2019-04-29T21:03:32.146Z,57.02
2019-04-29T21:06:03.996Z,56.92
2019-04-29T21:08:35.505Z,56.85
2019-04-29T21:11:14.332Z,56.78
2019-04-29T21:13:58.407Z,56.71
2019-04-29T21:16:35.437Z,56.64
2019-04-29T21:19:09.100Z,56.55
2019-04-29T21:21:41.985Z,56.50
2019-04-29T21:24:17.501Z,56.43
2019-04-29T21:26:46.639Z,56.33
2019-04-29T21:29:19.547Z,56.18
2019-04-29T21:31:58.599Z,55.91
2019-04-29T21:34:29.663Z,55.63
2019-04-29T21:37:09.821Z,55.28
2019-04-29T21:39:46.826Z,54.97
2019-04-29T21:42:35.744Z,54.73
2019-04-29T21:45:08.822Z,54.49
2019-04-29T21:47:52.690Z,54.22
2019-04-29T21:50:11.290Z,54.08
2019-04-29T21:52:42.614Z,53.87
2019-04-29T21:55:15.926Z,53.66
2019-04-29T21:57:47.006Z,53.42
2019-04-29T22:00:24.074Z,53.32
2019-04-29T22:02:55.489Z,53.13
2019-04-29T22:05:29.353Z,53.05
2019-04-29T22:08:01.639Z,52.90
2019-04-29T22:10:35.124Z,52.84
2019-04-29T22:13:08.917Z,52.76
2019-04-29T22:15:43.232Z,52.65
2019-04-29T22:18:17.832Z,52.58
2019-04-29T22:20:47.829Z,52.52
2019-04-29T22:23:19.347Z,52.54
2019-04-29T22:25:50.730Z,52.46
2019-04-29T22:28:22.121Z,52.29
2019-04-29T22:30:54.920Z,52.16
2019-04-29T22:33:29.784Z,52.00
2019-04-29T22:35:59.450Z,51.92
2019-04-29T22:38:30.930Z,51.87
2019-04-29T22:41:05.068Z,51.71
2019-04-29T22:43:48.196Z,51.69
2019-04-29T22:46:20.568Z,51.60
2019-04-29T22:48:51.959Z,51.55
2019-04-29T22:51:23.179Z,51.48
2019-04-29T22:53:55.826Z,51.38
2019-04-29T22:56:27.844Z,51.30
2019-04-29T22:58:59.198Z,51.23
2019-04-29T23:01:30.660Z,51.17
2019-04-29T23:04:02.052Z,51.10
2019-04-29T23:06:33.317Z,51.05
2019-04-29T23:09:07.581Z,50.97
2019-04-29T23:11:40.824Z,50.97
2019-04-29T23:14:12.157Z,50.76
2019-04-29T23:16:43.387Z,50.72
2019-04-29T23:19:17.912Z,50.51
2019-04-29T23:22:10.448Z,50.35
2019-04-29T23:25:11.980Z,50.28
2019-04-29T23:27:43.225Z,50.24
2019-04-29T23:30:18.127Z,50.20
2019-04-29T23:32:49.400Z,50.14
2019-04-29T23:35:20.823Z,50.14
2019-04-29T23:37:52.475Z,50.20
2019-04-29T23:40:23.775Z,50.19
2019-04-29T23:42:55.413Z,50.22
2019-04-29T23:45:28.210Z,50.23
2019-04-29T23:47:59.502Z,50.28
2019-04-29T23:50:30.796Z,50.34
2019-04-29T23:53:02.044Z,50.29
2019-04-29T23:55:35.483Z,50.31
2019-04-29T23:58:23.852Z,50.28
